createdAt,value
2022-07-28T00:01:38.230Z,5.95
2022-07-28T00:03:40.006Z,5.93
2022-07-28T00:05:41.753Z,6.90
2022-07-28T00:07:43.863Z,6.78
2022-07-28T00:09:45.504Z,6.28
2022-07-28T00:11:54.384Z,6.82
2022-07-28T00:13:56.647Z,6.47
2022-07-28T00:15:58.396Z,6.20
2022-07-28T00:18:00.854Z,6.47
2022-07-28T00:20:02.693Z,7.65
2022-07-28T00:22:04.745Z,7.65
2022-07-28T00:24:06.777Z,7.55
2022-07-28T00:26:09.527Z,7.47
2022-07-28T00:28:11.143Z,8.57
2022-07-28T00:30:12.967Z,9.18
2022-07-28T00:32:15.042Z,8.88
2022-07-28T00:34:17.366Z,9.20
2022-07-28T00:36:19.200Z,9.20
2022-07-28T00:38:26.396Z,9.55
2022-07-28T00:40:47.013Z,8.68
2022-07-28T00:42:48.715Z,9.50
2022-07-28T00:44:50.393Z,9.23
2022-07-28T00:46:52.061Z,8.93
2022-07-28T00:48:55.019Z,9.57
2022-07-28T00:50:56.809Z,9.27
2022-07-28T00:52:58.816Z,8.98
2022-07-28T00:55:01.022Z,9.40
2022-07-28T00:57:02.924Z,9.05
2022-07-28T00:59:04.893Z,8.52
2022-07-28T01:01:11.517Z,8.30
2022-07-28T01:03:13.337Z,8.15
2022-07-28T01:05:15.970Z,8.93
2022-07-28T01:07:28.086Z,8.57
2022-07-28T01:09:29.718Z,8.60
2022-07-28T01:11:42.528Z,8.18
2022-07-28T01:14:08.943Z,8.27
2022-07-28T01:16:10.833Z,7.90
2022-07-28T01:18:21.238Z,8.20
2022-07-28T01:20:36.278Z,8.45
2022-07-28T01:22:41.613Z,8.50
2022-07-28T01:24:51.493Z,8.20
2022-07-28T01:27:11.453Z,8.52
2022-07-28T01:29:32.929Z,8.18
2022-07-28T01:31:59.149Z,8.93
2022-07-28T01:34:06.175Z,8.00
2022-07-28T01:36:14.811Z,8.65
2022-07-28T01:38:17.718Z,8.98
2022-07-28T01:40:23.240Z,8.50
2022-07-28T01:42:28.463Z,8.82
2022-07-28T01:44:30.208Z,8.55
2022-07-28T01:46:32.673Z,7.63
2022-07-28T01:48:35.116Z,7.97
2022-07-28T01:50:37.665Z,8.18
2022-07-28T01:52:41.339Z,8.15
2022-07-28T01:54:43.869Z,8.15
2022-07-28T01:56:46.580Z,8.45
2022-07-28T01:58:49.279Z,8.63
2022-07-28T02:00:51.621Z,9.10
2022-07-28T02:02:54.629Z,8.77
2022-07-28T02:04:57.513Z,8.40
2022-07-28T02:06:59.780Z,8.75
2022-07-28T02:09:04.000Z,7.95
2022-07-28T02:11:24.095Z,7.95
2022-07-28T02:13:25.867Z,8.75
2022-07-28T02:15:29.944Z,8.57
2022-07-28T02:17:32.266Z,8.38
2022-07-28T02:19:34.665Z,8.63
2022-07-28T02:21:36.927Z,9.73
2022-07-28T02:23:39.579Z,9.20
2022-07-28T02:25:41.899Z,9.73
2022-07-28T02:28:02.270Z,9.70
2022-07-28T02:30:16.625Z,9.95
2022-07-28T02:32:50.195Z,10.32
2022-07-28T02:34:52.556Z,10.85
2022-07-28T02:36:58.014Z,10.30
2022-07-28T02:39:08.132Z,9.75
2022-07-28T02:41:28.737Z,10.18
2022-07-28T02:43:49.842Z,10.20
2022-07-28T02:45:54.122Z,9.30
2022-07-28T02:48:06.067Z,9.23
2022-07-28T02:50:08.546Z,9.00
2022-07-28T02:52:11.519Z,8.43
2022-07-28T02:54:13.875Z,9.40
2022-07-28T02:56:17.731Z,9.37
2022-07-28T03:00:22.902Z,10.18
2022-07-28T03:02:24.929Z,9.85
2022-07-28T03:04:45.908Z,8.52
2022-07-28T03:06:47.698Z,9.18
2022-07-28T03:08:53.062Z,8.50
2022-07-28T03:11:12.213Z,9.27
2022-07-28T03:13:14.630Z,9.45
2022-07-28T03:15:16.421Z,10.27
2022-07-28T03:17:19.301Z,8.50
2022-07-28T03:19:21.071Z,10.20
2022-07-28T03:21:22.758Z,9.43
2022-07-28T03:23:29.059Z,9.02
2022-07-28T03:25:44.899Z,9.73
2022-07-28T03:27:48.578Z,8.98
2022-07-28T03:30:04.109Z,9.18
2022-07-28T03:32:06.911Z,9.70
2022-07-28T03:34:11.823Z,9.80
2022-07-28T03:36:16.534Z,9.65
2022-07-28T03:38:23.617Z,10.48
2022-07-28T03:40:29.233Z,10.63
2022-07-28T03:42:31.001Z,10.07
2022-07-28T03:44:33.139Z,10.20
2022-07-28T03:46:35.949Z,10.40
2022-07-28T03:48:37.675Z,10.63
2022-07-28T03:50:39.419Z,10.60
2022-07-28T03:52:41.116Z,9.77
2022-07-28T03:54:43.060Z,10.30
2022-07-28T03:56:44.753Z,10.23
2022-07-28T03:58:46.401Z,10.27
2022-07-28T04:00:49.476Z,10.25
2022-07-28T04:02:51.592Z,10.68
2022-07-28T04:04:53.258Z,10.38
2022-07-28T04:06:55.122Z,10.15
2022-07-28T04:08:57.692Z,11.10
2022-07-28T04:10:59.368Z,10.35
2022-07-28T04:13:01.097Z,9.52
2022-07-28T04:15:02.799Z,10.35
2022-07-28T04:17:04.731Z,11.00
2022-07-28T04:19:06.481Z,11.63
2022-07-28T04:21:08.153Z,12.52
2022-07-28T04:23:10.138Z,12.82
2022-07-28T04:25:15.104Z,13.73
2022-07-28T04:27:16.855Z,14.43
2022-07-28T04:29:27.254Z,13.48
2022-07-28T04:31:29.404Z,13.57
2022-07-28T04:33:31.186Z,11.70
2022-07-28T04:35:34.811Z,11.80
2022-07-28T04:39:38.341Z,12.45
2022-07-28T04:41:41.838Z,12.40
2022-07-28T04:43:43.534Z,12.70
2022-07-28T04:45:53.741Z,12.52
2022-07-28T04:47:56.329Z,12.52
2022-07-28T04:49:58.172Z,12.73
2022-07-28T04:51:59.861Z,12.75
2022-07-28T04:54:01.588Z,12.73
2022-07-28T04:56:03.488Z,11.50
2022-07-28T04:58:06.267Z,11.60
2022-07-28T05:00:13.701Z,12.40
2022-07-28T05:02:15.648Z,11.02
2022-07-28T05:04:18.978Z,12.25
2022-07-28T05:06:21.099Z,11.23
2022-07-28T05:08:26.103Z,12.05
2022-07-28T05:10:28.328Z,11.52
2022-07-28T05:12:30.204Z,12.43
2022-07-28T05:14:31.921Z,12.63
2022-07-28T05:16:33.617Z,12.45
2022-07-28T05:18:35.834Z,12.73
2022-07-28T05:20:37.508Z,12.10
2022-07-28T05:22:46.904Z,11.88
2022-07-28T05:24:48.567Z,12.38
2022-07-28T05:26:50.231Z,11.02
2022-07-28T05:28:51.818Z,10.93
2022-07-28T05:30:54.239Z,10.98
2022-07-28T05:32:59.285Z,11.10
2022-07-28T05:35:00.993Z,11.70
2022-07-28T05:37:02.996Z,11.98
2022-07-28T05:39:04.645Z,11.55
2022-07-28T05:41:06.710Z,11.70
2022-07-28T05:43:08.364Z,11.15
2022-07-28T05:45:15.661Z,12.25
2022-07-28T05:47:18.843Z,11.18
2022-07-28T05:49:22.200Z,11.00
2022-07-28T05:51:23.879Z,11.40
2022-07-28T05:53:25.658Z,10.57
2022-07-28T05:55:27.386Z,11.48
2022-07-28T05:57:29.022Z,11.13
2022-07-28T05:59:30.687Z,11.10
2022-07-28T06:01:37.193Z,11.27
2022-07-28T06:03:42.361Z,10.63
2022-07-28T06:06:00.504Z,10.52
2022-07-28T06:08:06.163Z,10.88
2022-07-28T06:10:08.562Z,10.50
2022-07-28T06:12:10.292Z,10.63
2022-07-28T06:14:12.362Z,11.48
2022-07-28T06:16:14.383Z,12.07
2022-07-28T06:18:16.497Z,11.82
2022-07-28T06:20:21.965Z,10.93
2022-07-28T06:22:23.627Z,11.38
2022-07-28T06:24:25.360Z,10.35
2022-07-28T06:26:27.042Z,10.07
2022-07-28T06:28:28.740Z,9.50
2022-07-28T06:30:31.406Z,11.07
2022-07-28T06:32:33.090Z,11.02
2022-07-28T06:34:34.752Z,11.43
2022-07-28T06:36:36.419Z,11.85
2022-07-28T06:38:38.113Z,11.18
2022-07-28T06:40:39.737Z,10.40
2022-07-28T06:42:42.321Z,16.45
2022-07-28T06:44:58.256Z,11.57
2022-07-28T06:47:00.853Z,10.63
2022-07-28T06:49:04.293Z,10.50
2022-07-28T06:53:07.965Z,11.18
2022-07-28T06:55:09.960Z,11.48
2022-07-28T06:57:13.742Z,11.15
2022-07-28T07:01:18.184Z,11.93
2022-07-28T07:03:19.826Z,12.77
2022-07-28T07:05:21.603Z,11.77
2022-07-28T07:07:23.667Z,11.68
2022-07-28T07:09:25.373Z,12.25
2022-07-28T07:11:27.335Z,12.50
2022-07-28T07:13:29.375Z,12.20
2022-07-28T07:15:31.072Z,11.82
2022-07-28T07:17:39.478Z,13.63
2022-07-28T07:19:41.166Z,12.68
2022-07-28T07:21:42.923Z,18.58
2022-07-28T07:23:44.626Z,13.45
2022-07-28T07:25:46.996Z,11.20
2022-07-28T07:27:48.811Z,12.93
2022-07-28T07:29:50.484Z,13.73
2022-07-28T07:31:52.824Z,12.30
2022-07-28T07:33:55.486Z,12.80
2022-07-28T07:35:57.144Z,12.88
2022-07-28T07:37:58.883Z,12.65
2022-07-28T07:40:01.577Z,13.10
2022-07-28T07:42:03.299Z,14.48
2022-07-28T07:44:05.270Z,13.93
2022-07-28T07:46:07.583Z,14.63
2022-07-28T07:48:09.374Z,12.57
2022-07-28T07:50:11.186Z,11.90
2022-07-28T07:52:13.484Z,12.27
2022-07-28T07:54:15.423Z,12.02
2022-07-28T07:56:18.502Z,12.45
2022-07-28T07:58:20.237Z,12.75
2022-07-28T08:00:29.218Z,12.48
2022-07-28T08:02:31.292Z,12.10
2022-07-28T08:04:37.655Z,12.30
2022-07-28T08:06:40.448Z,12.57
2022-07-28T08:08:46.472Z,11.80
2022-07-28T08:10:51.238Z,12.13
2022-07-28T08:12:52.909Z,12.00
2022-07-28T08:14:55.062Z,12.60
2022-07-28T08:16:58.586Z,12.65
2022-07-28T08:19:00.414Z,12.63
2022-07-28T08:21:02.168Z,12.20
2022-07-28T08:23:04.097Z,12.18
2022-07-28T08:25:06.362Z,18.58
2022-07-28T08:27:08.264Z,14.02
2022-07-28T08:29:10.212Z,12.48
2022-07-28T08:31:11.903Z,12.32
2022-07-28T08:33:13.671Z,11.70
2022-07-28T08:35:32.497Z,13.13
2022-07-28T08:37:35.694Z,11.73
2022-07-28T08:39:37.536Z,10.98
2022-07-28T08:41:45.741Z,10.73
2022-07-28T08:43:47.927Z,11.20
2022-07-28T08:45:57.803Z,12.05
2022-07-28T08:48:09.342Z,10.32
2022-07-28T08:50:15.185Z,11.30
2022-07-28T08:52:19.332Z,10.65
2022-07-28T08:54:25.267Z,11.55
2022-07-28T08:56:28.618Z,12.05
2022-07-28T08:58:31.869Z,11.45
2022-07-28T09:00:33.756Z,11.43
2022-07-28T09:02:41.058Z,12.38
2022-07-28T09:04:45.146Z,11.05
2022-07-28T09:06:47.475Z,11.85
2022-07-28T09:08:49.368Z,11.25
2022-07-28T09:10:51.580Z,11.65
2022-07-28T09:12:53.256Z,12.15
2022-07-28T09:14:54.889Z,12.32
2022-07-28T09:17:01.893Z,11.85
2022-07-28T09:19:03.616Z,12.98
2022-07-28T09:21:05.312Z,12.52
2022-07-28T09:23:42.792Z,11.43
2022-07-28T09:25:31.222Z,11.85
2022-07-28T09:27:45.157Z,12.88
2022-07-28T09:29:49.346Z,13.55
2022-07-28T09:31:56.932Z,12.35
2022-07-28T09:34:05.849Z,12.38
2022-07-28T09:36:15.264Z,12.13
2022-07-28T09:38:17.166Z,12.65
2022-07-28T09:40:22.392Z,13.38
2022-07-28T09:42:25.124Z,14.13
2022-07-28T09:44:27.779Z,14.15
2022-07-28T09:46:30.686Z,14.00
2022-07-28T09:48:32.789Z,15.02
2022-07-28T09:50:34.518Z,14.30
2022-07-28T09:52:38.606Z,13.40
2022-07-28T09:54:59.941Z,14.65
2022-07-28T09:57:01.715Z,14.52
2022-07-28T09:59:03.827Z,15.18
2022-07-28T10:01:12.384Z,14.82
2022-07-28T10:03:25.590Z,14.57
2022-07-28T10:05:39.816Z,14.57
2022-07-28T10:07:51.165Z,15.35
2022-07-28T10:09:57.991Z,16.02
2022-07-28T10:12:16.146Z,16.65
2022-07-28T10:14:21.531Z,15.55
2022-07-28T10:16:28.852Z,16.20
2022-07-28T10:18:30.627Z,16.05
2022-07-28T10:20:33.636Z,14.05
2022-07-28T10:22:42.881Z,14.05
2022-07-28T10:24:46.817Z,14.63
2022-07-28T10:26:49.400Z,14.60
2022-07-28T10:28:52.292Z,13.05
2022-07-28T10:30:55.625Z,13.55
2022-07-28T10:33:03.391Z,13.30
2022-07-28T10:35:08.255Z,12.98
2022-07-28T10:37:10.930Z,10.38
2022-07-28T10:39:14.303Z,11.00
2022-07-28T10:43:17.562Z,9.45
2022-07-28T10:45:19.410Z,10.23
2022-07-28T10:47:21.720Z,11.27
2022-07-28T10:49:27.591Z,12.07
2022-07-28T10:51:34.497Z,11.98
2022-07-28T10:53:58.736Z,12.20
2022-07-28T10:56:03.895Z,11.02
2022-07-28T10:58:24.999Z,11.05
2022-07-28T11:00:27.552Z,10.23
2022-07-28T11:02:51.807Z,10.55
2022-07-28T11:04:55.779Z,10.70
2022-07-28T11:07:13.484Z,10.50
2022-07-28T11:09:17.977Z,10.25
2022-07-28T11:11:59.064Z,9.25
2022-07-28T11:14:43.533Z,9.88
2022-07-28T11:19:04.615Z,8.75
2022-07-28T11:21:10.079Z,9.77
2022-07-28T11:25:33.065Z,9.82
2022-07-28T11:27:40.852Z,8.90
2022-07-28T11:29:47.625Z,9.05
2022-07-28T11:31:49.934Z,9.52
2022-07-28T11:33:54.643Z,9.15
2022-07-28T11:35:57.703Z,8.13
2022-07-28T11:38:02.143Z,9.40
2022-07-28T11:40:42.937Z,9.10
2022-07-28T11:42:44.561Z,8.70
2022-07-28T11:44:48.447Z,9.15
2022-07-28T11:46:52.702Z,9.85
2022-07-28T11:49:14.959Z,9.52
2022-07-28T11:51:18.733Z,9.70
2022-07-28T11:53:23.935Z,9.05
2022-07-28T11:55:55.466Z,9.05
2022-07-28T11:57:53.502Z,9.27
2022-07-28T11:59:57.336Z,9.18
2022-07-28T12:01:59.006Z,8.38
2022-07-28T12:04:01.447Z,8.48
2022-07-28T12:06:03.128Z,8.10
2022-07-28T12:08:05.114Z,8.90
2022-07-28T12:10:51.804Z,8.90
2022-07-28T12:12:53.262Z,8.40
2022-07-28T12:14:56.391Z,9.35
2022-07-28T12:16:58.119Z,7.97
2022-07-28T12:19:01.799Z,9.27
2022-07-28T12:21:05.354Z,8.52
2022-07-28T12:23:08.050Z,9.02
2022-07-28T12:25:13.243Z,9.82
2022-07-28T12:27:16.613Z,10.00
2022-07-28T12:29:20.699Z,9.35
2022-07-28T12:31:27.398Z,10.57
2022-07-28T12:33:30.314Z,9.77
2022-07-28T12:35:31.991Z,10.25
2022-07-28T12:37:33.657Z,10.05
2022-07-28T12:39:39.353Z,10.02
2022-07-28T12:41:41.045Z,10.07
2022-07-28T12:43:50.280Z,10.07
2022-07-28T12:45:52.391Z,9.98
2022-07-28T12:47:54.283Z,10.77
2022-07-28T12:50:14.477Z,13.73
2022-07-28T12:52:18.146Z,10.52
2022-07-28T12:54:34.547Z,9.88
2022-07-28T12:56:52.130Z,9.27
2022-07-28T12:59:08.261Z,9.55
2022-07-28T13:01:12.410Z,10.25
2022-07-28T13:03:25.365Z,9.32
2022-07-28T13:05:53.599Z,10.38
2022-07-28T13:08:05.179Z,10.25
2022-07-28T13:10:11.436Z,9.82
2022-07-28T13:12:20.195Z,9.23
2022-07-28T13:14:44.495Z,10.23
2022-07-28T13:16:57.469Z,9.48
2022-07-28T13:19:03.912Z,10.57
2022-07-28T13:21:05.590Z,10.45
2022-07-28T13:23:07.247Z,10.23
2022-07-28T13:25:11.054Z,9.52
2022-07-28T13:27:12.706Z,10.73
2022-07-28T13:29:14.620Z,10.90
2022-07-28T13:31:16.328Z,10.30
2022-07-28T13:33:19.004Z,10.00
2022-07-28T13:35:23.060Z,9.98
2022-07-28T13:37:24.740Z,9.32
2022-07-28T13:39:26.439Z,9.43
2022-07-28T13:41:28.275Z,9.45
2022-07-28T13:43:50.196Z,9.45
2022-07-28T13:45:55.154Z,9.10
2022-07-28T13:47:59.968Z,8.55
2022-07-28T13:50:01.719Z,8.93
2022-07-28T13:52:07.203Z,8.38
2022-07-28T13:54:15.261Z,8.68
2022-07-28T13:56:17.165Z,8.10
2022-07-28T13:58:18.825Z,8.93
2022-07-28T14:00:24.917Z,8.40
2022-07-28T14:02:26.779Z,8.48
2022-07-28T14:04:28.538Z,8.23
2022-07-28T14:06:30.422Z,8.70
2022-07-28T14:08:32.807Z,8.00
2022-07-28T14:10:35.888Z,7.80
2022-07-28T14:14:39.546Z,8.10
2022-07-28T14:16:49.748Z,8.18
2022-07-28T14:18:51.624Z,9.00
2022-07-28T14:20:53.266Z,8.35
2022-07-28T14:22:54.931Z,8.65
2022-07-28T14:24:56.581Z,8.40
2022-07-28T14:26:58.213Z,8.20
2022-07-28T14:29:00.111Z,8.40
2022-07-28T14:31:02.068Z,8.65
2022-07-28T14:33:06.375Z,9.32
2022-07-28T14:35:08.342Z,8.98
2022-07-28T14:37:09.948Z,9.63
2022-07-28T14:39:12.657Z,10.07
2022-07-28T14:41:15.093Z,10.05
2022-07-28T14:43:17.032Z,9.55
2022-07-28T14:45:18.849Z,9.60
2022-07-28T14:47:22.323Z,10.27
2022-07-28T14:49:25.029Z,9.23
2022-07-28T14:51:26.871Z,8.85
2022-07-28T14:53:28.498Z,10.13
2022-07-28T14:55:30.732Z,9.43
2022-07-28T14:57:52.166Z,8.65
2022-07-28T14:59:54.810Z,9.68
2022-07-28T15:01:56.658Z,8.70
2022-07-28T15:03:58.443Z,8.43
2022-07-28T15:06:01.757Z,8.43
2022-07-28T15:10:06.162Z,8.48
2022-07-28T15:12:08.156Z,9.57
2022-07-28T15:14:09.840Z,9.35
2022-07-28T15:16:11.559Z,8.63
2022-07-28T15:18:13.375Z,8.32
2022-07-28T15:20:15.394Z,8.80
2022-07-28T15:22:17.036Z,7.90
2022-07-28T15:24:19.413Z,8.95
2022-07-28T15:26:21.165Z,8.43
2022-07-28T15:28:22.850Z,8.45
2022-07-28T15:30:24.619Z,9.10
2022-07-28T15:32:28.188Z,8.43
2022-07-28T15:34:30.479Z,8.02
2022-07-28T15:36:33.825Z,9.15
2022-07-28T15:40:38.359Z,8.30
2022-07-28T15:42:40.086Z,8.17
2022-07-28T15:44:41.913Z,8.35
2022-07-28T15:46:44.031Z,9.02
2022-07-28T15:48:48.511Z,8.52
2022-07-28T15:50:50.250Z,8.13
2022-07-28T15:52:51.924Z,9.25
2022-07-28T15:54:53.594Z,9.45
2022-07-28T15:56:55.369Z,9.35
2022-07-28T15:58:57.983Z,9.10
2022-07-28T16:01:01.719Z,10.15
2022-07-28T16:03:04.107Z,9.70
2022-07-28T16:05:06.066Z,9.43
2022-07-28T16:07:19.681Z,9.73
2022-07-28T16:09:24.135Z,10.05
2022-07-28T16:11:25.879Z,9.13
2022-07-28T16:13:36.012Z,9.02
2022-07-28T16:15:39.362Z,9.93
2022-07-28T16:17:42.202Z,9.27
2022-07-28T16:19:49.641Z,10.52
2022-07-28T16:21:51.967Z,9.70
2022-07-28T16:23:53.588Z,9.95
2022-07-28T16:25:55.744Z,9.45
2022-07-28T16:27:57.898Z,9.30
2022-07-28T16:29:59.618Z,9.77
2022-07-28T16:32:03.686Z,9.90
2022-07-28T16:34:05.341Z,10.40
2022-07-28T16:36:07.065Z,10.50
2022-07-28T16:38:08.708Z,10.75
2022-07-28T16:40:11.000Z,10.05
2022-07-28T16:42:12.649Z,10.07
2022-07-28T16:44:16.122Z,8.82
2022-07-28T16:46:19.387Z,9.98
2022-07-28T16:48:21.088Z,10.30
2022-07-28T16:50:24.086Z,9.32
2022-07-28T16:52:27.446Z,10.85
2022-07-28T16:56:30.641Z,10.10
2022-07-28T16:58:32.875Z,10.50
2022-07-28T17:00:34.562Z,10.75
2022-07-28T17:02:36.212Z,26.88
2022-07-28T17:04:37.930Z,18.02
2022-07-28T17:06:39.739Z,15.18
2022-07-28T17:08:41.401Z,12.20
2022-07-28T17:10:43.101Z,11.18
2022-07-28T17:12:44.751Z,11.23
2022-07-28T17:14:51.633Z,10.15
2022-07-28T17:16:53.282Z,11.13
2022-07-28T17:18:54.982Z,10.90
2022-07-28T17:20:56.658Z,10.10
2022-07-28T17:22:58.885Z,10.90
2022-07-28T17:25:00.563Z,10.18
2022-07-28T17:27:36.531Z,9.88
2022-07-28T17:29:23.918Z,9.98
2022-07-28T17:31:25.815Z,8.07
2022-07-28T17:33:27.912Z,7.68
2022-07-28T17:35:35.153Z,8.07
2022-07-28T17:37:37.325Z,8.23
2022-07-28T17:39:38.988Z,7.63
2022-07-28T17:41:40.638Z,8.25
2022-07-28T17:43:45.469Z,8.43
2022-07-28T17:45:47.808Z,7.75
2022-07-28T17:47:49.465Z,7.70
2022-07-28T17:49:51.504Z,8.35
2022-07-28T17:53:55.998Z,9.43
2022-07-28T17:56:01.329Z,8.43
2022-07-28T17:58:18.675Z,9.65
2022-07-28T18:00:23.842Z,9.07
2022-07-28T18:02:25.696Z,9.60
2022-07-28T18:04:27.394Z,9.30
2022-07-28T18:06:34.108Z,8.60
2022-07-28T18:08:36.609Z,7.57
2022-07-28T18:10:38.961Z,7.45
2022-07-28T18:12:40.732Z,8.02
2022-07-28T18:14:42.362Z,7.15
2022-07-28T18:16:44.453Z,7.25
2022-07-28T18:18:46.113Z,6.28
2022-07-28T18:20:48.047Z,5.68
2022-07-28T18:22:50.600Z,5.95
2022-07-28T18:24:52.385Z,4.93
2022-07-28T18:26:54.804Z,4.60
2022-07-28T18:28:56.481Z,4.20
2022-07-28T18:30:58.195Z,4.30
2022-07-28T18:33:01.881Z,4.00
2022-07-28T18:35:03.557Z,4.35
2022-07-28T18:37:05.186Z,4.20
2022-07-28T18:39:06.905Z,4.32
2022-07-28T18:41:08.543Z,3.72
2022-07-28T18:43:13.066Z,3.63
2022-07-28T18:45:16.047Z,3.65
2022-07-28T18:47:17.672Z,3.70
2022-07-28T18:49:20.125Z,3.42
2022-07-28T18:51:22.019Z,3.67
2022-07-28T18:53:28.824Z,3.45
2022-07-28T18:55:30.614Z,4.03
2022-07-28T18:57:32.280Z,4.03
2022-07-28T18:59:33.919Z,3.25
2022-07-28T19:01:35.775Z,3.00
2022-07-28T19:03:37.489Z,3.80
2022-07-28T19:05:41.731Z,3.53
2022-07-28T19:07:45.796Z,3.75
2022-07-28T19:09:47.455Z,4.47
2022-07-28T19:11:49.104Z,4.10
2022-07-28T19:13:50.953Z,4.40
2022-07-28T19:15:52.694Z,4.15
2022-07-28T19:18:11.357Z,5.28
2022-07-28T19:20:13.751Z,4.80
2022-07-28T19:22:15.497Z,5.20
2022-07-28T19:24:18.083Z,5.07
2022-07-28T19:26:20.330Z,5.35
2022-07-28T19:28:22.385Z,5.53
2022-07-28T19:30:24.129Z,6.05
2022-07-28T19:32:25.850Z,4.68
2022-07-28T19:34:27.908Z,4.97
2022-07-28T19:36:29.846Z,5.07
2022-07-28T19:38:31.475Z,5.55
2022-07-28T19:40:33.223Z,5.20
2022-07-28T19:42:35.301Z,5.85
2022-07-28T19:44:38.167Z,6.38
2022-07-28T19:46:40.470Z,5.60
2022-07-28T19:48:42.233Z,5.90
2022-07-28T19:50:50.979Z,6.80
2022-07-28T19:52:52.889Z,6.40
2022-07-28T19:54:55.794Z,6.28
2022-07-28T19:56:57.483Z,7.22
2022-07-28T19:58:59.327Z,6.25
2022-07-28T20:01:01.443Z,5.53
2022-07-28T20:03:04.138Z,5.77
2022-07-28T20:05:25.843Z,5.93
2022-07-28T20:07:27.475Z,6.32
2022-07-28T20:09:29.156Z,5.85
2022-07-28T20:11:32.950Z,6.10
2022-07-28T20:13:34.889Z,6.28
2022-07-28T20:15:38.808Z,7.03
2022-07-28T20:17:41.482Z,7.03
2022-07-28T20:19:43.166Z,7.88
2022-07-28T20:21:44.805Z,8.05
2022-07-28T20:23:46.457Z,8.10
2022-07-28T20:25:48.200Z,8.50
2022-07-28T20:27:49.852Z,7.47
2022-07-28T20:29:51.470Z,7.60
2022-07-28T20:31:53.185Z,8.10
2022-07-28T20:33:55.848Z,8.35
2022-07-28T20:35:57.478Z,8.00
2022-07-28T20:37:59.216Z,8.60
2022-07-28T20:40:00.968Z,7.72
2022-07-28T20:42:04.365Z,7.65
2022-07-28T20:44:29.791Z,7.93
2022-07-28T20:46:27.887Z,7.40
2022-07-28T20:48:29.698Z,6.75
2022-07-28T20:50:31.354Z,7.65
2022-07-28T20:52:34.040Z,7.45
2022-07-28T20:54:35.826Z,7.83
2022-07-28T20:56:37.681Z,7.50
2022-07-28T20:58:39.499Z,7.57
2022-07-28T21:00:41.151Z,7.40
2022-07-28T21:02:42.948Z,7.75
2022-07-28T21:04:44.601Z,7.75
2022-07-28T21:06:50.126Z,7.55
2022-07-28T21:08:54.872Z,8.35
2022-07-28T21:11:00.496Z,8.60
2022-07-28T21:13:02.209Z,8.32
2022-07-28T21:15:08.172Z,8.25
2022-07-28T21:17:09.878Z,8.25
2022-07-28T21:19:11.598Z,7.18
2022-07-28T21:21:13.417Z,8.05
2022-07-28T21:23:15.107Z,7.50
2022-07-28T21:25:16.943Z,8.07
2022-07-28T21:27:19.251Z,8.00
2022-07-28T21:31:21.710Z,7.15
2022-07-28T21:33:23.521Z,7.93
2022-07-28T21:35:25.313Z,7.40
2022-07-28T21:37:26.962Z,7.55
2022-07-28T21:39:28.658Z,7.55
2022-07-28T21:41:36.521Z,7.35
2022-07-28T21:43:38.860Z,7.75
2022-07-28T21:45:40.583Z,7.72
2022-07-28T21:47:42.419Z,8.48
2022-07-28T21:49:44.200Z,8.30
2022-07-28T21:51:46.322Z,8.13
2022-07-28T21:53:48.968Z,7.38
2022-07-28T21:55:55.399Z,8.03
2022-07-28T21:57:57.057Z,9.48
2022-07-28T21:59:58.772Z,8.55
2022-07-28T22:02:00.613Z,8.75
2022-07-28T22:04:02.227Z,8.18
2022-07-28T22:06:04.662Z,9.35
2022-07-28T22:08:06.395Z,9.38
2022-07-28T22:10:08.374Z,8.95
2022-07-28T22:12:10.218Z,8.63
2022-07-28T22:14:12.380Z,9.13
2022-07-28T22:16:14.277Z,8.30
2022-07-28T22:18:20.922Z,8.48
2022-07-28T22:20:22.625Z,9.15
2022-07-28T22:22:24.254Z,9.40
2022-07-28T22:24:26.330Z,9.38
2022-07-28T22:26:28.007Z,9.93
2022-07-28T22:28:30.629Z,9.73
2022-07-28T22:30:32.908Z,9.15
2022-07-28T22:32:34.570Z,9.35
2022-07-28T22:34:36.353Z,9.20
2022-07-28T22:36:38.627Z,8.73
2022-07-28T22:38:40.326Z,8.38
2022-07-28T22:40:41.991Z,7.90
2022-07-28T22:42:44.595Z,7.93
2022-07-28T22:44:46.260Z,7.80
2022-07-28T22:46:48.016Z,7.47
2022-07-28T22:48:49.868Z,7.40
2022-07-28T22:50:51.661Z,7.00
2022-07-28T22:52:53.450Z,7.10
2022-07-28T22:57:15.340Z,7.40
2022-07-28T22:59:17.822Z,7.00
2022-07-28T23:01:19.823Z,7.33
2022-07-28T23:03:22.380Z,7.18
2022-07-28T23:05:24.195Z,7.63
2022-07-28T23:07:53.148Z,7.50
2022-07-28T23:09:47.635Z,7.07
2022-07-28T23:11:55.559Z,7.07
2022-07-28T23:13:57.678Z,11.52
2022-07-28T23:15:59.542Z,9.23
2022-07-28T23:18:01.316Z,8.20
2022-07-28T23:22:06.992Z,8.38
2022-07-28T23:24:08.881Z,8.43
2022-07-28T23:26:10.649Z,8.60
2022-07-28T23:28:13.783Z,8.15
2022-07-28T23:30:15.584Z,8.15
2022-07-28T23:32:17.398Z,8.02
2022-07-28T23:34:19.366Z,8.68
2022-07-28T23:36:26.726Z,8.40
2022-07-28T23:38:29.292Z,9.05
2022-07-28T23:40:31.161Z,9.15
2022-07-28T23:42:33.051Z,8.50
2022-07-28T23:44:34.923Z,8.75
2022-07-28T23:46:36.684Z,8.95
2022-07-28T23:48:40.162Z,9.30
2022-07-28T23:50:41.952Z,8.70
2022-07-28T23:52:43.782Z,8.63
2022-07-28T23:54:45.559Z,8.32
2022-07-28T23:56:51.366Z,8.48
2022-07-28T23:58:53.148Z,8.30
